Smooth Rock Falls, Canada
Current Conditions -  °F | °C
As of 4:00 AM on Tuesday 21 Oct 2014 (Local Time) from CYYU Reporting Station
Broken Clouds Broken Clouds  
Wind Chill: 23°   Ceiling: 2500
Heat Index: 30°   Visibility: 15mi
Dew Point: 28°   Wind: 7mph
Humidity: 93%   Direction: 10°N
Pressure: 30.17"   Gusts: NA
Location:  49.28°N, 81.63°W
Report Text: CYYU 210800Z 01006KT 15SM BKN025 M01/M02 A3017 RMK SC6 SLP228
Loading
Personal Weather Stations






























Interactive Weather Map
Tropical Storm Tracking
New forecast layout! Learn more

10-Day Weather Forecast

Advertisements
Track Severe Weather on mobile